METAR Data
IDs: Format: Raw Decoded Include TAF

Data at: 0159 UTC 01 Mar 2021

CYXT 010100Z 19016G26KT 6SM -RA BR FEW005 BKN009 BKN019 OVC032 03/02 A2964 RMK SF1SF4SC2SC1 SLP048